Time;durP1;ratioP1;P1;durP2;ratioP2;P2;SDS_P1;SDS_P2;PMS_P1;PMS_P2;Temp;Humidity;BMP_temperature;BMP_pressure;BME280_temperature;BME280_humidity;BME280_pressure;Samples;Min_cycle;Max_cycle;Signal;HPM_P1;HPM_P2
2023/07/16 00:02:10;;;;;;;;;;;17.10;99.90;;;;;;5069087;28;20428;-44
2023/07/16 00:04:35;;;;;;;;;;;17.10;99.90;;;;;;5067727;28;19925;-42
2023/07/16 00:07:01;;;;;;;;;;;17.00;99.90;;;;;;5069733;28;20023;-42
2023/07/16 00:09:27;;;;;;;;;;;16.90;99.90;;;;;;5068423;28;19930;-42
2023/07/16 00:11:53;;;;;;;;;;;16.90;99.90;;;;;;5068873;28;20021;-43
2023/07/16 00:14:19;;;;;;;;;;;16.80;99.90;;;;;;5069066;28;20432;-42
2023/07/16 00:16:44;;;;;;;;;;;16.80;99.90;;;;;;5063538;28;19949;-42
2023/07/16 00:19:11;;;;;;;;;;;16.70;99.90;;;;;;5064238;28;19932;-43
2023/07/16 00:21:37;;;;;;;;;;;16.70;99.90;;;;;;5064768;28;19943;-42
2023/07/16 00:24:03;;;;;;;;;;;16.60;99.90;;;;;;5065602;28;19920;-42
2023/07/16 00:26:28;;;;;;;;;;;16.60;99.90;;;;;;5064515;28;20223;-42
2023/07/16 00:28:54;;;;;;;;;;;16.50;99.90;;;;;;5064639;28;20403;-43
2023/07/16 00:31:19;;;;;;;;;;;16.50;99.90;;;;;;5065729;28;19928;-42
2023/07/16 00:33:45;;;;;;;;;;;16.50;99.90;;;;;;5064550;28;19924;-42
2023/07/16 00:36:11;;;;;;;;;;;16.50;99.90;;;;;;5065309;28;19921;-43
2023/07/16 00:38:36;;;;;;;;;;;16.50;99.90;;;;;;5063595;28;19924;-42
2023/07/16 00:41:02;;;;;;;;;;;16.40;99.90;;;;;;5066447;28;20281;-42
2023/07/16 00:43:28;;;;;;;;;;;16.40;99.90;;;;;;5066359;28;19971;-43
2023/07/16 00:45:54;;;;;;;;;;;16.30;99.90;;;;;;5066733;28;20024;-43
2023/07/16 00:48:20;;;;;;;;;;;16.40;99.90;;;;;;5068333;28;20273;-43
2023/07/16 00:50:45;;;;;;;;;;;16.40;99.90;;;;;;5068387;28;20363;-42
2023/07/16 00:53:12;;;;;;;;;;;16.40;99.90;;;;;;5068518;28;20027;-41
2023/07/16 00:55:38;;;;;;;;;;;16.40;99.90;;;;;;5065881;28;20022;-43
2023/07/16 00:58:05;;;;;;;;;;;16.40;99.90;;;;;;5065583;28;20099;-43
2023/07/16 01:00:34;;;;;;;;;;;16.40;99.90;;;;;;5065087;28;20022;-42
2023/07/16 01:03:04;;;;;;;;;;;16.50;99.90;;;;;;5068576;28;20001;-43
2023/07/16 01:05:33;;;;;;;;;;;16.40;99.90;;;;;;5066432;28;19928;-45
2023/07/16 01:08:01;;;;;;;;;;;16.40;99.90;;;;;;5065244;28;20276;-43
2023/07/16 01:10:27;;;;;;;;;;;16.40;99.90;;;;;;5066215;28;19978;-44
2023/07/16 01:12:54;;;;;;;;;;;16.40;99.90;;;;;;5064194;28;20122;-44
2023/07/16 01:15:20;;;;;;;;;;;16.40;99.90;;;;;;5063178;28;19921;-41
2023/07/16 01:17:45;;;;;;;;;;;16.30;99.90;;;;;;5066829;28;19975;-42
2023/07/16 01:20:11;;;;;;;;;;;16.40;99.90;;;;;;5063393;28;19924;-42
2023/07/16 01:23:00;;;;;;;;;;;16.30;99.90;;;;;;5064896;28;20315;-43
2023/07/16 01:25:35;;;;;;;;;;;16.40;99.90;;;;;;5063882;28;20242;-43
2023/07/16 01:28:21;;;;;;;;;;;16.40;99.90;;;;;;5062569;28;20427;-45
2023/07/16 01:30:47;;;;;;;;;;;16.40;99.90;;;;;;5062094;28;19920;-43
2023/07/16 01:33:13;;;;;;;;;;;16.40;99.90;;;;;;5062583;28;20281;-42
2023/07/16 01:35:40;;;;;;;;;;;16.40;99.90;;;;;;5062735;28;19924;-42
2023/07/16 01:38:06;;;;;;;;;;;16.40;99.90;;;;;;5061879;28;20023;-41
2023/07/16 01:40:32;;;;;;;;;;;16.40;99.90;;;;;;5061845;28;20041;-42
2023/07/16 01:42:57;;;;;;;;;;;16.40;99.90;;;;;;5063710;28;19921;-41
2023/07/16 01:45:23;;;;;;;;;;;16.30;99.90;;;;;;5064178;28;19940;-42
2023/07/16 01:47:48;;;;;;;;;;;16.30;99.90;;;;;;5064742;28;19927;-42
2023/07/16 01:50:14;;;;;;;;;;;16.20;99.90;;;;;;5068480;28;19997;-42
2023/07/16 01:52:39;;;;;;;;;;;16.20;99.90;;;;;;5068181;28;19981;-43
2023/07/16 01:55:05;;;;;;;;;;;16.20;99.90;;;;;;5064859;28;19929;-46
2023/07/16 01:57:31;;;;;;;;;;;16.10;99.90;;;;;;5062922;28;19920;-44
2023/07/16 01:59:56;;;;;;;;;;;16.10;99.90;;;;;;5067290;28;19994;-42
2023/07/16 02:02:22;;;;;;;;;;;16.10;99.90;;;;;;5066969;28;20014;-41
2023/07/16 02:04:47;;;;;;;;;;;16.00;99.90;;;;;;5050647;28;20362;-41
2023/07/16 02:07:13;;;;;;;;;;;16.00;99.90;;;;;;5064765;28;20589;-43
2023/07/16 02:09:40;;;;;;;;;;;16.00;99.90;;;;;;5067732;28;20027;-43
2023/07/16 02:12:06;;;;;;;;;;;16.00;99.90;;;;;;5065039;28;19928;-43
2023/07/16 02:14:31;;;;;;;;;;;16.00;99.90;;;;;;5066090;28;19926;-41
2023/07/16 02:16:57;;;;;;;;;;;16.00;99.90;;;;;;5067197;28;20372;-42
2023/07/16 02:19:23;;;;;;;;;;;15.90;99.90;;;;;;5062689;28;19924;-42
2023/07/16 02:21:48;;;;;;;;;;;16.00;99.90;;;;;;5067453;28;19946;-41
2023/07/16 02:24:14;;;;;;;;;;;15.90;99.90;;;;;;5070672;28;20011;-43
2023/07/16 02:26:39;;;;;;;;;;;15.90;99.90;;;;;;5061653;28;19959;-42
2023/07/16 02:29:08;;;;;;;;;;;15.90;99.90;;;;;;5063050;28;19920;-45
2023/07/16 02:31:34;;;;;;;;;;;15.90;99.90;;;;;;5062143;28;19928;-42
2023/07/16 02:34:00;;;;;;;;;;;15.90;99.90;;;;;;5063297;28;19928;-41
2023/07/16 02:36:25;;;;;;;;;;;15.80;99.90;;;;;;5063514;28;20352;-43
2023/07/16 02:38:51;;;;;;;;;;;15.70;99.90;;;;;;5064032;28;19939;-45
2023/07/16 02:41:16;;;;;;;;;;;15.70;99.90;;;;;;5063047;28;20011;-43
2023/07/16 02:43:42;;;;;;;;;;;15.70;99.90;;;;;;5066185;28;19921;-43
2023/07/16 02:46:07;;;;;;;;;;;15.70;99.90;;;;;;5065163;28;19957;-43
2023/07/16 02:48:33;;;;;;;;;;;15.70;99.90;;;;;;5064582;28;20081;-42
2023/07/16 02:50:59;;;;;;;;;;;15.70;99.90;;;;;;5065727;28;19924;-42
2023/07/16 02:53:24;;;;;;;;;;;15.70;99.90;;;;;;5067061;28;20015;-43
2023/07/16 02:55:50;;;;;;;;;;;15.80;99.90;;;;;;5067343;28;19931;-43
2023/07/16 02:58:15;;;;;;;;;;;15.90;99.90;;;;;;5063890;28;19996;-43
2023/07/16 03:00:41;;;;;;;;;;;15.70;99.90;;;;;;5065523;28;19943;-42
2023/07/16 03:03:06;;;;;;;;;;;15.70;99.90;;;;;;5064432;28;20284;-43
2023/07/16 03:05:32;;;;;;;;;;;15.60;99.90;;;;;;5063588;28;19921;-42
2023/07/16 03:07:57;;;;;;;;;;;15.50;99.90;;;;;;5066665;28;20072;-43
2023/07/16 03:10:23;;;;;;;;;;;15.60;99.90;;;;;;5081706;28;19928;-42
2023/07/16 03:12:48;;;;;;;;;;;15.60;99.90;;;;;;5068278;28;20042;-43
2023/07/16 03:15:14;;;;;;;;;;;15.60;99.90;;;;;;5075489;28;19955;-43
2023/07/16 03:17:39;;;;;;;;;;;15.60;99.90;;;;;;5067329;28;20002;-45
2023/07/16 03:20:05;;;;;;;;;;;15.60;99.90;;;;;;5065356;28;19920;-43
2023/07/16 03:22:31;;;;;;;;;;;15.70;99.90;;;;;;5066652;28;20281;-41
2023/07/16 03:24:57;;;;;;;;;;;15.60;99.90;;;;;;5049151;28;19935;-44
2023/07/16 03:27:22;;;;;;;;;;;15.70;99.90;;;;;;5063599;28;20274;-43
2023/07/16 03:29:48;;;;;;;;;;;15.70;99.90;;;;;;5067718;28;20021;-42
2023/07/16 03:32:14;;;;;;;;;;;15.50;99.90;;;;;;5066604;28;19920;-42
2023/07/16 03:34:39;;;;;;;;;;;15.60;99.90;;;;;;5066686;28;20265;-42
2023/07/16 03:37:05;;;;;;;;;;;15.70;99.90;;;;;;5066936;28;19920;-41
2023/07/16 03:39:30;;;;;;;;;;;15.60;99.90;;;;;;5066745;28;19927;-43
2023/07/16 03:41:56;;;;;;;;;;;15.60;99.90;;;;;;5082414;28;19928;-44
2023/07/16 03:44:21;;;;;;;;;;;15.60;99.90;;;;;;5065306;28;19921;-43
2023/07/16 03:46:47;;;;;;;;;;;15.70;99.90;;;;;;5066515;28;19981;-42
2023/07/16 03:49:12;;;;;;;;;;;15.70;99.90;;;;;;5064136;28;19928;-43
2023/07/16 03:51:38;;;;;;;;;;;15.70;99.90;;;;;;5070424;28;19921;-42
2023/07/16 03:54:03;;;;;;;;;;;15.70;99.90;;;;;;5066105;28;19928;-43
2023/07/16 03:56:29;;;;;;;;;;;15.70;99.90;;;;;;5070243;28;19921;-45
2023/07/16 03:58:54;;;;;;;;;;;15.70;99.90;;;;;;5066950;28;19931;-42
2023/07/16 04:01:20;;;;;;;;;;;15.90;99.90;;;;;;5067586;28;20011;-41
2023/07/16 04:03:45;;;;;;;;;;;15.90;99.90;;;;;;5069595;28;19968;-42
2023/07/16 04:06:11;;;;;;;;;;;;;;;;;;5069331;28;19927;-42
2023/07/16 04:08:37;;;;;;;;;;;;;;;;;;5069697;28;19920;-41
2023/07/16 04:11:04;;;;;;;;;;;16.00;99.90;;;;;;5067437;28;19929;-42
2023/07/16 04:13:29;;;;;;;;;;;16.00;99.90;;;;;;5067049;28;19920;-44
2023/07/16 04:15:57;;;;;;;;;;;16.00;99.90;;;;;;5069369;28;19958;-41
2023/07/16 04:18:23;;;;;;;;;;;16.00;99.90;;;;;;5068480;28;19920;-45
2023/07/16 04:20:48;;;;;;;;;;;16.00;99.90;;;;;;5069061;28;20499;-42
2023/07/16 04:23:14;;;;;;;;;;;16.00;99.90;;;;;;5068345;28;19924;-42
2023/07/16 04:25:39;;;;;;;;;;;16.00;99.90;;;;;;5069887;28;20448;-45
2023/07/16 04:28:05;;;;;;;;;;;16.10;99.90;;;;;;5069089;28;20379;-42
2023/07/16 04:30:30;;;;;;;;;;;16.10;99.90;;;;;;5068449;28;19920;-42
2023/07/16 04:32:56;;;;;;;;;;;16.20;99.90;;;;;;5070367;28;20635;-43
2023/07/16 04:35:22;;;;;;;;;;;;;;;;;;5065812;28;19928;-45
2023/07/16 04:37:47;;;;;;;;;;;16.40;99.90;;;;;;5065883;28;19928;-42
2023/07/16 04:40:13;;;;;;;;;;;;;;;;;;5067489;28;19920;-42
2023/07/16 04:42:39;;;;;;;;;;;16.90;99.90;;;;;;5068889;28;19973;-43
2023/07/16 04:45:05;;;;;;;;;;;17.80;99.90;;;;;;5064942;28;19947;-45
2023/07/16 04:47:31;;;;;;;;;;;18.50;99.90;;;;;;5063543;28;20245;-41
2023/07/16 04:49:59;;;;;;;;;;;19.00;99.90;;;;;;5067855;28;20391;-43
2023/07/16 04:52:25;;;;;;;;;;;19.70;99.90;;;;;;5069000;28;20021;-42
2023/07/16 04:54:50;;;;;;;;;;;20.40;99.90;;;;;;5052322;28;20759;-43
2023/07/16 04:57:16;;;;;;;;;;;20.50;99.90;;;;;;5068311;28;20398;-43
2023/07/16 04:59:42;;;;;;;;;;;21.00;99.90;;;;;;5068122;28;20066;-42
2023/07/16 05:02:07;;;;;;;;;;;21.40;99.90;;;;;;5063869;28;19920;-44
2023/07/16 05:04:33;;;;;;;;;;;21.90;99.90;;;;;;5065902;28;20387;-42
2023/07/16 05:07:00;;;;;;;;;;;22.00;99.90;;;;;;5067873;28;19936;-43
2023/07/16 05:09:26;;;;;;;;;;;22.50;99.90;;;;;;5068291;28;20054;-42
2023/07/16 05:11:51;;;;;;;;;;;23.00;99.90;;;;;;5064325;28;19928;-42
2023/07/16 05:14:17;;;;;;;;;;;23.30;99.90;;;;;;5063311;28;19989;-42
2023/07/16 05:16:42;;;;;;;;;;;23.30;99.90;;;;;;5068992;28;20011;-42
2023/07/16 05:19:08;;;;;;;;;;;23.80;99.90;;;;;;5067570;28;19967;-42
2023/07/16 05:21:34;;;;;;;;;;;24.10;99.90;;;;;;5066267;28;20396;-42
2023/07/16 05:23:59;;;;;;;;;;;24.40;99.90;;;;;;5050287;28;20277;-42
2023/07/16 05:26:25;;;;;;;;;;;24.60;99.90;;;;;;5066291;28;19979;-44
2023/07/16 05:28:50;;;;;;;;;;;24.80;99.90;;;;;;5068348;28;19966;-45
2023/07/16 05:31:16;;;;;;;;;;;25.40;99.90;;;;;;5068118;28;19920;-43
2023/07/16 05:33:41;;;;;;;;;;;25.80;99.90;;;;;;5067156;28;19921;-43
2023/07/16 05:36:07;;;;;;;;;;;25.60;99.90;;;;;;5065911;28;20015;-43
2023/07/16 05:38:32;;;;;;;;;;;25.60;99.90;;;;;;5065504;28;19920;-42
2023/07/16 05:41:02;;;;;;;;;;;25.60;99.90;;;;;;5066367;28;19974;-42
2023/07/16 05:43:28;;;;;;;;;;;25.50;99.90;;;;;;5067571;28;20419;-42
2023/07/16 05:45:53;;;;;;;;;;;25.90;99.90;;;;;;5060182;28;19928;-43
2023/07/16 05:48:19;;;;;;;;;;;26.00;99.90;;;;;;5064034;28;19920;-43
2023/07/16 05:50:45;;;;;;;;;;;26.20;99.90;;;;;;5065672;28;19928;-43
2023/07/16 05:53:11;;;;;;;;;;;26.50;99.90;;;;;;5069612;28;19927;-44
2023/07/16 05:55:38;;;;;;;;;;;26.40;99.90;;;;;;5064097;28;20230;-43
2023/07/16 05:58:04;;;;;;;;;;;27.00;99.90;;;;;;5066216;28;19931;-44
2023/07/16 06:00:29;;;;;;;;;;;27.00;99.90;;;;;;5073062;28;19920;-43
2023/07/16 06:02:55;;;;;;;;;;;27.00;99.20;;;;;;5071238;28;19995;-42
2023/07/16 06:05:22;;;;;;;;;;;27.30;99.60;;;;;;5054528;28;20321;-43
2023/07/16 06:07:47;;;;;;;;;;;27.40;99.30;;;;;;5068189;28;19921;-43
2023/07/16 06:10:13;;;;;;;;;;;27.40;98.90;;;;;;5069780;28;19942;-42
2023/07/16 06:12:39;;;;;;;;;;;27.10;98.70;;;;;;5069036;28;20036;-42
2023/07/16 06:15:04;;;;;;;;;;;26.80;99.30;;;;;;5062831;28;19928;-42
2023/07/16 06:17:30;;;;;;;;;;;27.10;99.30;;;;;;5062324;28;20023;-42
2023/07/16 06:19:57;;;;;;;;;;;27.10;98.20;;;;;;5060682;28;19932;-42
2023/07/16 06:22:23;;;;;;;;;;;27.00;98.30;;;;;;5059781;28;19929;-44
2023/07/16 06:24:48;;;;;;;;;;;26.60;98.10;;;;;;5066871;28;19931;-42
2023/07/16 06:27:14;;;;;;;;;;;26.90;98.30;;;;;;5049470;28;20237;-45
2023/07/16 06:29:39;;;;;;;;;;;26.70;98.30;;;;;;5066888;28;20301;-44
2023/07/16 06:32:05;;;;;;;;;;;27.10;97.90;;;;;;5067936;28;20352;-43
2023/07/16 06:34:30;;;;;;;;;;;27.20;97.80;;;;;;5064804;28;21519;-42
2023/07/16 06:36:56;;;;;;;;;;;26.80;97.40;;;;;;5064701;28;20023;-41
2023/07/16 06:39:22;;;;;;;;;;;26.90;97.20;;;;;;5066878;28;20000;-45
2023/07/16 06:41:47;;;;;;;;;;;26.80;97.00;;;;;;5063665;28;20497;-43
2023/07/16 06:44:13;;;;;;;;;;;27.00;97.40;;;;;;5067878;28;19920;-40
2023/07/16 06:46:38;;;;;;;;;;;27.30;96.80;;;;;;5067038;28;19921;-42
2023/07/16 06:49:05;;;;;;;;;;;27.50;97.10;;;;;;5066758;28;20017;-42
2023/07/16 06:51:32;;;;;;;;;;;27.60;95.90;;;;;;5063399;28;19935;-41
2023/07/16 06:53:57;;;;;;;;;;;27.40;95.70;;;;;;5064211;28;20257;-43
2023/07/16 06:56:23;;;;;;;;;;;27.00;95.80;;;;;;5070211;28;20034;-41
2023/07/16 06:58:48;;;;;;;;;;;27.40;96.60;;;;;;5070232;28;20396;-44
2023/07/16 07:01:14;;;;;;;;;;;27.30;96.00;;;;;;5067382;28;19935;-43
2023/07/16 07:03:39;;;;;;;;;;;27.40;96.00;;;;;;5069632;28;20341;-42
2023/07/16 07:06:05;;;;;;;;;;;27.60;95.80;;;;;;5067460;28;20026;-42
2023/07/16 07:08:30;;;;;;;;;;;27.50;95.80;;;;;;5068716;28;20479;-42
2023/07/16 07:10:56;;;;;;;;;;;28.00;95.50;;;;;;5072204;28;19927;-43
2023/07/16 07:13:22;;;;;;;;;;;28.00;96.30;;;;;;5069692;28;21817;-42
2023/07/16 07:15:48;;;;;;;;;;;27.80;95.30;;;;;;5067161;28;20462;-43
2023/07/16 07:18:13;;;;;;;;;;;28.10;95.40;;;;;;5069810;28;19924;-45
2023/07/16 07:20:39;;;;;;;;;;;28.20;95.60;;;;;;5068478;28;19929;-42
2023/07/16 07:23:05;;;;;;;;;;;27.70;94.90;;;;;;5065466;28;19920;-42
2023/07/16 07:25:31;;;;;;;;;;;27.70;95.00;;;;;;5066012;28;20018;-45
2023/07/16 07:27:56;;;;;;;;;;;27.50;94.70;;;;;;5066911;28;19920;-44
2023/07/16 07:30:22;;;;;;;;;;;27.70;95.30;;;;;;5065546;28;19924;-43
2023/07/16 07:32:47;;;;;;;;;;;27.70;95.30;;;;;;5063206;28;19947;-42
2023/07/16 07:35:13;;;;;;;;;;;27.80;94.70;;;;;;5066391;28;20380;-43
2023/07/16 07:37:39;;;;;;;;;;;26.90;94.50;;;;;;5072643;28;19990;-42
2023/07/16 07:40:04;;;;;;;;;;;27.00;94.80;;;;;;5074325;28;19924;-42
2023/07/16 07:42:30;;;;;;;;;;;26.70;95.10;;;;;;5073219;28;19921;-44
2023/07/16 07:44:56;;;;;;;;;;;26.60;94.90;;;;;;5075713;28;20348;-42
2023/07/16 07:47:21;;;;;;;;;;;26.10;95.70;;;;;;5076583;28;19924;-42
2023/07/16 07:49:47;;;;;;;;;;;25.60;95.90;;;;;;5070542;28;20293;-45
2023/07/16 07:52:12;;;;;;;;;;;25.10;96.00;;;;;;5054503;28;19925;-45
2023/07/16 07:54:38;;;;;;;;;;;24.50;96.50;;;;;;5072410;28;19965;-45
2023/07/16 07:57:04;;;;;;;;;;;23.70;96.40;;;;;;5071067;28;19920;-42
2023/07/16 07:59:30;;;;;;;;;;;23.40;97.30;;;;;;5071443;28;19920;-44
2023/07/16 08:01:56;;;;;;;;;;;23.70;99.00;;;;;;5066420;28;19924;-43
2023/07/16 08:04:23;;;;;;;;;;;23.50;98.50;;;;;;5067655;28;20023;-42
2023/07/16 08:06:49;;;;;;;;;;;23.40;98.50;;;;;;5066987;28;19939;-41
2023/07/16 08:09:14;;;;;;;;;;;23.30;99.30;;;;;;5067421;28;19924;-42
2023/07/16 08:11:40;;;;;;;;;;;23.30;99.10;;;;;;5065397;28;19924;-43
2023/07/16 08:14:05;;;;;;;;;;;23.00;98.90;;;;;;5066567;28;19921;-42
2023/07/16 08:16:31;;;;;;;;;;;23.10;99.90;;;;;;5069243;28;19982;-43
2023/07/16 08:18:56;;;;;;;;;;;23.20;99.70;;;;;;5065742;28;20010;-43
2023/07/16 08:21:22;;;;;;;;;;;23.30;99.90;;;;;;5064624;28;19924;-42
2023/07/16 08:23:51;;;;;;;;;;;23.40;99.50;;;;;;5065807;28;19936;-42
2023/07/16 08:26:17;;;;;;;;;;;23.30;99.50;;;;;;5066144;28;20349;-42
2023/07/16 08:28:42;;;;;;;;;;;23.30;99.70;;;;;;5066756;28;19924;-43
2023/07/16 08:31:09;;;;;;;;;;;23.20;99.80;;;;;;5064253;28;19921;-42
2023/07/16 08:33:35;;;;;;;;;;;23.60;99.90;;;;;;5066443;28;20061;-44
2023/07/16 08:36:00;;;;;;;;;;;23.70;99.90;;;;;;5066315;28;20332;-44
2023/07/16 08:38:26;;;;;;;;;;;23.60;99.90;;;;;;5068599;28;19943;-45
2023/07/16 08:40:51;;;;;;;;;;;23.40;98.80;;;;;;5069724;28;19930;-42
2023/07/16 08:43:18;;;;;;;;;;;23.40;99.70;;;;;;5069842;28;19931;-42
2023/07/16 08:45:44;;;;;;;;;;;23.10;99.70;;;;;;5068812;28;19920;-43
2023/07/16 08:48:10;;;;;;;;;;;23.00;99.90;;;;;;5069806;28;20277;-42
2023/07/16 08:50:37;;;;;;;;;;;22.70;99.90;;;;;;5065355;28;19926;-44
2023/07/16 08:53:05;;;;;;;;;;;22.80;99.90;;;;;;5055393;28;19973;-43
2023/07/16 08:55:31;;;;;;;;;;;22.40;99.90;;;;;;5068782;28;19929;-41
2023/07/16 08:57:57;;;;;;;;;;;22.20;99.90;;;;;;5070349;28;19994;-41
2023/07/16 09:00:25;;;;;;;;;;;22.10;99.90;;;;;;5068319;28;20020;-43
2023/07/16 09:02:55;;;;;;;;;;;22.10;99.90;;;;;;5048603;28;19924;-43
2023/07/16 09:05:21;;;;;;;;;;;22.10;99.90;;;;;;5042647;28;19921;-43
2023/07/16 09:07:47;;;;;;;;;;;22.40;99.90;;;;;;5067311;28;19934;-42
2023/07/16 09:10:12;;;;;;;;;;;22.70;99.90;;;;;;5067835;28;19928;-43
2023/07/16 09:12:42;;;;;;;;;;;22.70;99.90;;;;;;5063106;28;20005;-42
2023/07/16 09:15:07;;;;;;;;;;;22.90;99.90;;;;;;5061262;28;20003;-43
2023/07/16 09:17:35;;;;;;;;;;;23.10;99.90;;;;;;5064053;28;20007;-44
2023/07/16 09:20:02;;;;;;;;;;;23.50;99.90;;;;;;5065091;28;20348;-42
2023/07/16 09:22:29;;;;;;;;;;;23.50;99.90;;;;;;5068305;28;19970;-43
2023/07/16 09:24:56;;;;;;;;;;;23.50;99.90;;;;;;5067371;28;20335;-42
2023/07/16 09:27:27;;;;;;;;;;;23.20;99.90;;;;;;5066440;28;20007;-42
2023/07/16 09:29:53;;;;;;;;;;;23.60;99.90;;;;;;5063136;28;19971;-43
2023/07/16 09:32:19;;;;;;;;;;;23.60;99.90;;;;;;5063119;28;20035;-43
2023/07/16 09:34:45;;;;;;;;;;;23.60;99.90;;;;;;5071129;28;19924;-45
2023/07/16 09:37:11;;;;;;;;;;;23.40;99.90;;;;;;5064080;28;19928;-42
2023/07/16 09:39:37;;;;;;;;;;;22.90;99.90;;;;;;5071040;28;19951;-45
2023/07/16 09:42:03;;;;;;;;;;;22.80;99.90;;;;;;5070151;28;20010;-42
2023/07/16 09:44:29;;;;;;;;;;;22.50;99.90;;;;;;5074070;28;20008;-42
2023/07/16 09:46:54;;;;;;;;;;;22.30;99.90;;;;;;5067959;28;19964;-41
2023/07/16 09:49:20;;;;;;;;;;;22.60;99.90;;;;;;5066754;28;19990;-43
2023/07/16 09:51:47;;;;;;;;;;;23.20;99.90;;;;;;5062913;28;19927;-41
2023/07/16 09:54:14;;;;;;;;;;;23.80;99.90;;;;;;5066100;28;20388;-41
2023/07/16 09:56:43;;;;;;;;;;;24.10;99.90;;;;;;5067099;28;19986;-43
2023/07/16 09:59:11;;;;;;;;;;;24.10;99.90;;;;;;5070259;28;20015;-42
2023/07/16 10:01:39;;;;;;;;;;;24.00;99.90;;;;;;5072202;28;20291;-43
2023/07/16 10:04:11;;;;;;;;;;;24.30;99.90;;;;;;5068396;28;20404;-42
2023/07/16 10:06:37;;;;;;;;;;;24.10;99.80;;;;;;5072991;28;19927;-43
2023/07/16 10:09:02;;;;;;;;;;;23.90;99.90;;;;;;5053325;28;19921;-44
2023/07/16 10:11:36;;;;;;;;;;;23.60;99.90;;;;;;5064162;28;19928;-42
2023/07/16 10:14:02;;;;;;;;;;;23.40;99.90;;;;;;5070668;28;20369;-43
2023/07/16 10:16:37;;;;;;;;;;;23.10;99.90;;;;;;5063496;28;19928;-42
2023/07/16 10:19:04;;;;;;;;;;;23.20;99.90;;;;;;5066912;28;19916;-42
2023/07/16 10:21:36;;;;;;;;;;;23.20;99.90;;;;;;5068307;28;19921;-44
2023/07/16 10:24:03;;;;;;;;;;;23.10;99.90;;;;;;5068679;28;19920;-43
2023/07/16 10:26:29;;;;;;;;;;;22.90;99.90;;;;;;5064305;28;19924;-42
2023/07/16 10:28:55;;;;;;;;;;;22.70;99.90;;;;;;5064598;28;19924;-42
2023/07/16 10:31:24;;;;;;;;;;;22.60;99.90;;;;;;5069091;28;19936;-44
2023/07/16 10:34:08;;;;;;;;;;;22.50;99.90;;;;;;5061961;28;19927;-47
2023/07/16 10:36:40;;;;;;;;;;;22.30;99.90;;;;;;5052947;28;19958;-44
2023/07/16 10:39:06;;;;;;;;;;;22.40;99.90;;;;;;5070053;28;20284;-47
2023/07/16 10:41:32;;;;;;;;;;;22.30;99.90;;;;;;5072448;28;19935;-42
2023/07/16 10:43:58;;;;;;;;;;;22.30;99.90;;;;;;5072046;28;19920;-42
2023/07/16 10:46:24;;;;;;;;;;;22.40;99.90;;;;;;5071585;28;19920;-47
2023/07/16 10:48:49;;;;;;;;;;;22.60;99.90;;;;;;5072099;28;19920;-43
2023/07/16 10:51:16;;;;;;;;;;;22.90;99.90;;;;;;5051465;28;19924;-42
2023/07/16 10:53:42;;;;;;;;;;;23.10;99.90;;;;;;5068748;28;20022;-43
2023/07/16 10:56:08;;;;;;;;;;;23.10;99.90;;;;;;5070484;28;19963;-44
2023/07/16 10:58:35;;;;;;;;;;;23.00;99.90;;;;;;5067633;28;19963;-43
2023/07/16 11:01:01;;;;;;;;;;;23.00;99.90;;;;;;5068487;28;19920;-43
2023/07/16 11:03:27;;;;;;;;;;;23.30;99.90;;;;;;5072456;28;20269;-43
2023/07/16 11:05:53;;;;;;;;;;;23.40;99.90;;;;;;5068845;28;19967;-43
2023/07/16 11:08:22;;;;;;;;;;;23.50;99.90;;;;;;5070061;28;20389;-45
2023/07/16 11:10:53;;;;;;;;;;;23.60;99.90;;;;;;5071446;28;19920;-44
2023/07/16 11:13:18;;;;;;;;;;;23.40;99.90;;;;;;5070550;28;19975;-44
2023/07/16 11:15:44;;;;;;;;;;;23.20;99.90;;;;;;5056539;28;19994;-43
2023/07/16 11:18:09;;;;;;;;;;;23.00;99.90;;;;;;5065465;28;19921;-44
2023/07/16 11:20:35;;;;;;;;;;;22.60;99.90;;;;;;5070235;28;19969;-45
2023/07/16 11:23:01;;;;;;;;;;;22.70;99.90;;;;;;5068994;28;19928;-43
2023/07/16 11:25:27;;;;;;;;;;;23.00;99.90;;;;;;5066594;28;20049;-41
2023/07/16 11:27:54;;;;;;;;;;;23.60;99.90;;;;;;5069922;28;19921;-44
2023/07/16 11:30:22;;;;;;;;;;;23.90;99.90;;;;;;5068910;28;19947;-42
2023/07/16 11:32:48;;;;;;;;;;;23.90;99.90;;;;;;5064019;28;19927;-43
2023/07/16 11:35:18;;;;;;;;;;;23.80;99.90;;;;;;5067919;28;19921;-45
2023/07/16 11:37:44;;;;;;;;;;;23.70;99.90;;;;;;5065063;28;20369;-43
2023/07/16 11:40:10;;;;;;;;;;;23.50;99.90;;;;;;5069771;28;20005;-43
2023/07/16 11:42:37;;;;;;;;;;;23.30;99.90;;;;;;5055836;28;19927;-42
2023/07/16 11:45:03;;;;;;;;;;;23.20;99.90;;;;;;5069705;28;19958;-42
2023/07/16 11:47:29;;;;;;;;;;;23.00;99.90;;;;;;5074063;28;19929;-42
2023/07/16 11:49:55;;;;;;;;;;;22.60;99.90;;;;;;5070560;28;19940;-44
2023/07/16 11:52:23;;;;;;;;;;;22.50;99.90;;;;;;5072330;28;20026;-42
2023/07/16 11:54:49;;;;;;;;;;;22.50;99.90;;;;;;5073092;28;19920;-42
2023/07/16 11:57:15;;;;;;;;;;;22.60;99.90;;;;;;5053398;28;19941;-43
2023/07/16 11:59:41;;;;;;;;;;;22.60;99.90;;;;;;5073365;28;20365;-43
2023/07/16 12:02:07;;;;;;;;;;;22.60;99.90;;;;;;5071694;28;19966;-42
2023/07/16 12:04:32;;;;;;;;;;;22.50;99.90;;;;;;5073077;28;20268;-42
2023/07/16 12:06:58;;;;;;;;;;;22.40;99.90;;;;;;5074030;28;19966;-44
2023/07/16 12:09:23;;;;;;;;;;;22.40;99.90;;;;;;5072607;28;19950;-42
2023/07/16 12:11:49;;;;;;;;;;;22.20;99.90;;;;;;5072658;28;19924;-43
2023/07/16 12:14:14;;;;;;;;;;;22.20;99.90;;;;;;5074169;28;19946;-44
2023/07/16 12:16:40;;;;;;;;;;;22.40;99.90;;;;;;5071881;28;19969;-43
2023/07/16 12:19:07;;;;;;;;;;;22.50;99.90;;;;;;5073126;28;19920;-43
2023/07/16 12:21:33;;;;;;;;;;;22.60;99.90;;;;;;5072323;28;19999;-43
2023/07/16 12:23:58;;;;;;;;;;;22.80;99.90;;;;;;5070637;28;20002;-42
2023/07/16 12:26:24;;;;;;;;;;;23.10;99.90;;;;;;5067898;28;19927;-42
2023/07/16 12:28:49;;;;;;;;;;;23.40;99.90;;;;;;5069756;28;19974;-42
2023/07/16 12:31:16;;;;;;;;;;;23.90;99.90;;;;;;5050966;28;19954;-43
2023/07/16 12:33:42;;;;;;;;;;;24.00;99.90;;;;;;5066856;28;19939;-44
2023/07/16 12:36:08;;;;;;;;;;;24.20;99.90;;;;;;5066610;28;20289;-44
2023/07/16 12:38:33;;;;;;;;;;;24.40;99.90;;;;;;5067919;28;19939;-42
2023/07/16 12:40:59;;;;;;;;;;;24.50;99.90;;;;;;5066085;28;19936;-42
2023/07/16 12:43:24;;;;;;;;;;;24.50;99.90;;;;;;5070820;28;19936;-43
2023/07/16 12:45:50;;;;;;;;;;;24.20;99.90;;;;;;5067273;28;19935;-44
2023/07/16 12:48:15;;;;;;;;;;;24.50;99.90;;;;;;5068686;28;19920;-43
2023/07/16 12:50:41;;;;;;;;;;;24.30;99.90;;;;;;5069104;28;19943;-42
2023/07/16 12:53:06;;;;;;;;;;;24.00;99.90;;;;;;5066123;28;19958;-42
2023/07/16 12:55:33;;;;;;;;;;;23.90;99.90;;;;;;5067587;28;19997;-42
2023/07/16 12:57:59;;;;;;;;;;;23.60;99.90;;;;;;5070183;28;19927;-43
2023/07/16 13:00:25;;;;;;;;;;;23.50;99.90;;;;;;5068323;28;19928;-43
2023/07/16 13:02:50;;;;;;;;;;;23.40;99.90;;;;;;5068455;28;19969;-42
2023/07/16 13:05:16;;;;;;;;;;;23.50;99.90;;;;;;5069201;28;19943;-42
2023/07/16 13:07:42;;;;;;;;;;;23.60;99.90;;;;;;5066519;28;19947;-44
2023/07/16 13:10:08;;;;;;;;;;;23.80;99.90;;;;;;5069754;28;19916;-41
2023/07/16 13:12:34;;;;;;;;;;;23.70;99.90;;;;;;5067733;28;19932;-44
2023/07/16 13:15:00;;;;;;;;;;;23.50;99.90;;;;;;5066575;28;19927;-42
2023/07/16 13:17:25;;;;;;;;;;;23.20;99.90;;;;;;5067595;28;20353;-44
2023/07/16 13:19:51;;;;;;;;;;;23.60;99.90;;;;;;5066666;28;19972;-45
2023/07/16 13:22:16;;;;;;;;;;;24.00;99.90;;;;;;5062417;28;20009;-43
2023/07/16 13:24:42;;;;;;;;;;;24.10;99.90;;;;;;5067821;28;19920;-45
2023/07/16 13:27:10;;;;;;;;;;;24.10;99.90;;;;;;5067450;28;20008;-43
2023/07/16 13:29:35;;;;;;;;;;;24.30;99.90;;;;;;5069081;28;19942;-44
2023/07/16 13:32:01;;;;;;;;;;;24.20;99.90;;;;;;5063711;28;20370;-43
2023/07/16 13:34:26;;;;;;;;;;;24.10;99.90;;;;;;5068676;28;20006;-43
2023/07/16 13:36:52;;;;;;;;;;;24.00;99.90;;;;;;5068290;28;20277;-43
2023/07/16 13:39:17;;;;;;;;;;;23.80;99.90;;;;;;5068840;28;19931;-44
2023/07/16 13:41:43;;;;;;;;;;;23.70;99.90;;;;;;5057255;28;19928;-42
2023/07/16 13:44:09;;;;;;;;;;;23.80;99.90;;;;;;5043519;28;20022;-45
2023/07/16 13:46:34;;;;;;;;;;;23.90;99.90;;;;;;5062137;28;19924;-43
2023/07/16 13:49:00;;;;;;;;;;;23.80;99.90;;;;;;5060540;28;19921;-43
2023/07/16 13:51:26;;;;;;;;;;;23.80;99.90;;;;;;5064900;28;20007;-45
2023/07/16 13:53:51;;;;;;;;;;;23.40;99.90;;;;;;5059037;28;19963;-43
2023/07/16 13:56:17;;;;;;;;;;;23.50;99.90;;;;;;5064277;28;20003;-42
2023/07/16 13:58:42;;;;;;;;;;;23.20;99.90;;;;;;5062287;28;19935;-44
2023/07/16 14:01:08;;;;;;;;;;;23.20;99.90;;;;;;5063983;28;19922;-43
2023/07/16 14:03:34;;;;;;;;;;;23.10;99.90;;;;;;5061463;28;19925;-43
2023/07/16 14:05:59;;;;;;;;;;;23.20;99.90;;;;;;5066391;28;19921;-42
2023/07/16 14:08:25;;;;;;;;;;;23.20;99.90;;;;;;5064544;28;20011;-43
2023/07/16 14:10:52;;;;;;;;;;;23.20;99.90;;;;;;5063724;28;19920;-43
2023/07/16 14:13:17;;;;;;;;;;;23.90;99.90;;;;;;5062896;28;20035;-43